Time;durP1;ratioP1;P1;durP2;ratioP2;P2;SDS_P1;SDS_P2;PMS_P1;PMS_P2;Temp;Humidity;BMP_temperature;BMP_pressure;BME280_temperature;BME280_humidity;BME280_pressure;Samples;Min_cycle;Max_cycle;Signal;HPM_P1;HPM_P2
2021/08/06 00:00:22;;;;;;;42.28;12.70;;;;;;;26.70;46.20;95823.81;5002024;28;20058;-66
2021/08/06 00:02:49;;;;;;;30.42;11.20;;;;;;;26.87;46.99;95844.63;5001947;28;20069;-64
2021/08/06 00:05:16;;;;;;;58.00;16.73;;;;;;;26.97;46.49;95837.44;5003723;28;20065;-64
2021/08/06 00:07:43;;;;;;;39.55;12.70;;;;;;;27.09;46.48;95844.75;5003383;28;20092;-66
2021/08/06 00:10:10;;;;;;;39.70;13.57;;;;;;;26.98;45.68;95838.22;5002475;28;20523;-65
2021/08/06 00:12:37;;;;;;;35.78;13.70;;;;;;;27.10;45.66;95845.53;5002158;28;20061;-65
2021/08/06 00:15:05;;;;;;;26.42;10.73;;;;;;;27.22;45.33;95856.44;5002267;28;20073;-64
2021/08/06 00:17:32;;;;;;;27.45;10.93;;;;;;;27.28;45.28;95845.94;5002164;28;20140;-65
2021/08/06 00:19:58;;;;;;;29.80;11.85;;;;;;;27.22;45.23;95847.91;5003614;28;20058;-66
2021/08/06 00:22:25;;;;;;;36.95;12.57;;;;;;;26.92;45.55;95806.91;5002163;28;20064;-64
2021/08/06 00:24:52;;;;;;;21.35;10.35;;;;;;;27.17;45.68;95845.84;5003398;28;20057;-64
2021/08/06 00:27:19;;;;;;;24.48;10.43;;;;;;;27.09;45.93;95850.44;5002294;28;20149;-63
2021/08/06 00:29:45;;;;;;;26.95;10.40;;;;;;;27.11;44.98;95847.84;5002301;28;20060;-65
2021/08/06 00:32:12;;;;;;;21.80;10.70;;;;;;;27.25;44.83;95841.19;5001374;28;20157;-64
2021/08/06 00:34:39;;;;;;;29.67;10.50;;;;;;;27.24;44.92;95833.19;5001896;28;20057;-64
2021/08/06 00:37:05;;;;;;;45.95;15.40;;;;;;;26.86;44.29;95772.00;5001845;28;20057;-63
2021/08/06 00:39:32;;;;;;;32.42;12.95;;;;;;;26.65;43.91;95730.81;5001842;28;20513;-63
2021/08/06 00:41:59;;;;;;;49.25;15.40;;;;;;;27.21;44.15;95829.31;5002819;28;20058;-63
2021/08/06 00:44:26;;;;;;;26.58;10.48;;;;;;;27.31;43.99;95838.44;5002307;28;20057;-64
2021/08/06 00:46:52;;;;;;;23.85;10.02;;;;;;;26.75;43.87;95780.47;5001483;28;20108;-64
2021/08/06 00:49:20;;;;;;;27.17;10.65;;;;;;;27.47;43.54;95877.56;5001799;28;20057;-64
2021/08/06 00:51:47;;;;;;;25.80;11.15;;;;;;;27.34;44.09;95877.22;5002136;28;20061;-64
2021/08/06 00:54:15;;;;;;;27.63;10.77;;;;;;;27.44;43.64;95848.06;5004693;28;20053;-64
2021/08/06 00:56:46;;;;;;;37.28;12.75;;;;;;;27.13;44.24;95728.72;5007178;28;20058;-63
2021/08/06 00:59:13;;;;;;;18.20;9.45;;;;;;;27.26;43.57;95748.97;5005635;28;20434;-63
2021/08/06 01:01:45;;;;;;;24.65;10.00;;;;;;;27.20;43.60;95708.31;5006854;28;20065;-64
2021/08/06 01:04:21;;;;;;;45.33;12.95;;;;;;;27.01;43.55;95681.63;5005849;28;20098;-64
2021/08/06 01:06:54;;;;;;;24.58;10.27;;;;;;;27.02;43.93;95742.88;5005170;28;20144;-63
2021/08/06 01:09:51;;;;;;;24.08;9.63;;;;;;;26.49;43.36;95739.97;5004707;28;20053;-64
2021/08/06 01:12:27;;;;;;;21.23;9.57;;;;;;;27.24;43.60;95839.66;5004160;28;20064;-64
2021/08/06 01:14:59;;;;;;;21.42;9.18;;;;;;;27.15;43.84;95819.19;5004935;28;20507;-64
2021/08/06 01:17:31;;;;;;;28.10;10.55;;;;;;;27.01;43.43;95803.88;5005109;28;20068;-64
2021/08/06 01:20:19;;;;;;;19.40;9.02;;;;;;;27.28;43.37;95834.56;5006675;28;20054;-63
2021/08/06 01:22:54;;;;;;;21.75;9.27;;;;;;;27.31;43.02;95827.06;5006097;28;20064;-64
2021/08/06 01:25:44;;;;;;;21.55;9.10;;;;;;;27.24;43.56;95822.59;5004659;28;20635;-63
2021/08/06 01:28:17;;;;;;;23.65;9.43;;;;;;;26.26;42.98;95665.22;5005020;28;20072;-63
2021/08/06 01:30:44;;;;;;;28.38;9.55;;;;;;;27.27;42.34;95793.16;5004735;28;20054;-63
2021/08/06 01:33:13;;;;;;;22.30;9.60;;;;;;;27.31;42.59;95788.03;5004607;28;20116;-63
2021/08/06 01:35:40;;;;;;;36.72;11.60;;;;;;;27.31;42.30;95787.25;5004846;28;20432;-64
2021/08/06 01:38:08;;;;;;;31.40;10.05;;;;;;;27.30;42.63;95780.00;5004621;28;20053;-63
2021/08/06 01:41:01;;;;;;;25.33;9.57;;;;;;;27.29;42.91;95779.22;5004727;28;20501;-63
2021/08/06 01:43:35;;;;;;;46.85;12.65;;;;;;;27.22;42.90;95779.66;4999283;28;20062;-64
2021/08/06 01:46:22;;;;;;;31.42;11.57;;;;;;;27.01;42.67;95747.03;4985999;28;20548;-63
2021/08/06 01:48:53;;;;;;;22.10;9.95;;;;;;;27.01;42.88;95732.00;4986343;28;20054;-62
2021/08/06 01:51:22;;;;;;;27.27;10.98;;;;;;;27.12;43.42;95781.19;4984942;28;20060;-64
2021/08/06 01:53:52;;;;;;;40.08;12.02;;;;;;;26.77;45.61;95791.31;4986547;28;20062;-63
2021/08/06 01:56:19;;;;;;;22.83;10.32;;;;;;;26.21;46.20;95707.75;4984695;28;20133;-63
2021/08/06 01:58:50;;;;;;;31.50;10.10;;;;;;;26.43;46.70;95782.53;4985085;28;20088;-63
2021/08/06 02:01:18;;;;;;;32.40;9.82;;;;;;;26.38;46.57;95782.50;4985982;28;20154;-64
2021/08/06 02:03:44;;;;;;;35.58;10.73;;;;;;;26.51;44.61;95782.84;4985663;28;20495;-64
2021/08/06 02:06:11;;;;;;;37.47;10.75;;;;;;;26.79;42.56;95772.47;4983623;28;20152;-66
2021/08/06 02:08:39;;;;;;;26.02;9.52;;;;;;;26.97;42.13;95774.91;4984358;28;20066;-64
2021/08/06 02:11:06;;;;;;;29.40;9.50;;;;;;;27.06;41.73;95771.84;4984505;28;20054;-64
2021/08/06 02:13:35;;;;;;;25.25;8.77;;;;;;;27.14;41.35;95755.09;4985948;28;20096;-64
2021/08/06 02:16:03;;;;;;;24.70;7.70;;;;;;;27.21;41.58;95755.38;4984778;28;20063;-64
2021/08/06 02:18:31;;;;;;;21.90;8.55;;;;;;;27.29;41.84;95756.47;4984023;28;20062;-64
2021/08/06 02:21:14;;;;;;;39.38;10.25;;;;;;;26.84;42.32;95697.06;4985463;28;20053;-64
2021/08/06 02:23:46;;;;;;;23.45;9.13;;;;;;;27.24;41.75;95764.94;4985670;28;20481;-64
2021/08/06 02:26:16;;;;;;;29.95;9.63;;;;;;;26.80;41.62;95690.81;4985627;28;20500;-63
2021/08/06 02:28:45;;;;;;;17.13;7.43;;;;;;;27.27;41.26;95763.97;4983863;28;20509;-62
2021/08/06 02:31:13;;;;;;;17.48;7.70;;;;;;;26.50;41.09;95639.28;4985832;28;20062;-64
2021/08/06 02:33:40;;;;;;;16.73;7.55;;;;;;;26.96;41.44;95738.44;4985493;28;20054;-63
2021/08/06 02:36:07;;;;;;;21.15;8.27;;;;;;;26.84;41.29;95737.63;4984011;28;20070;-64
2021/08/06 02:38:34;;;;;;;18.45;8.00;;;;;;;27.14;41.36;95767.22;4985250;28;20046;-63
2021/08/06 02:41:01;;;;;;;18.90;8.13;;;;;;;27.21;41.13;95763.13;4984201;28;20177;-63
2021/08/06 02:43:28;;;;;;;23.35;7.85;;;;;;;26.80;41.33;95714.34;4983915;28;20058;-63
2021/08/06 02:45:55;;;;;;;25.52;9.45;;;;;;;26.48;41.27;95685.22;5003157;28;20053;-65
2021/08/06 02:48:22;;;;;;;18.55;8.23;;;;;;;27.09;41.61;95776.53;5003673;28;20069;-66
2021/08/06 02:50:48;;;;;;;18.10;8.85;;;;;;;26.94;43.27;95775.91;5005096;28;20060;-64
2021/08/06 02:53:15;;;;;;;18.30;8.73;;;;;;;26.82;44.66;95762.94;5003532;28;20061;-64
2021/08/06 02:55:42;;;;;;;18.52;8.95;;;;;;;25.95;45.89;95658.78;5003332;28;20045;-64
2021/08/06 02:58:09;;;;;;;34.92;9.48;;;;;;;26.41;47.70;95778.66;5003081;28;20050;-62
2021/08/06 03:00:36;;;;;;;21.30;9.45;;;;;;;25.65;48.79;95702.91;5003102;28;20054;-63
2021/08/06 03:03:03;;;;;;;24.55;9.38;;;;;;;26.06;49.24;95780.94;5004151;28;20063;-63
2021/08/06 03:05:30;;;;;;;21.90;9.93;;;;;;;26.03;49.40;95781.94;5003018;28;20347;-64
2021/08/06 03:07:56;;;;;;;29.88;10.43;;;;;;;26.01;49.07;95773.16;5003085;28;20060;-62
2021/08/06 03:10:24;;;;;;;23.60;10.88;;;;;;;25.77;48.91;95724.41;5003209;28;20053;-63
2021/08/06 03:12:51;;;;;;;23.73;10.27;;;;;;;25.60;48.26;95686.59;5002528;28;20174;-63
2021/08/06 03:15:19;;;;;;;20.35;9.23;;;;;;;25.76;46.35;95734.19;5002729;28;20054;-62
2021/08/06 03:17:46;;;;;;;23.08;10.98;;;;;;;25.76;45.52;95723.66;5004029;28;20056;-63
2021/08/06 03:20:18;;;;;;;17.58;7.97;;;;;;;26.28;43.99;95781.13;5002734;28;20062;-63
2021/08/06 03:22:45;;;;;;;23.13;10.50;;;;;;;26.46;43.15;95780.75;5002862;28;20073;-63
2021/08/06 03:25:12;;;;;;;15.88;7.90;;;;;;;26.45;43.24;95784.88;5002770;28;20060;-65
2021/08/06 03:27:39;;;;;;;20.08;8.70;;;;;;;26.16;43.10;95734.06;5002830;28;20046;-63
2021/08/06 03:30:08;;;;;;;25.27;8.70;;;;;;;26.51;43.29;95782.84;5003164;28;20058;-63
2021/08/06 03:32:35;;;;;;;17.27;9.02;;;;;;;26.64;42.97;95791.75;5002941;28;20046;-63
2021/08/06 03:35:03;;;;;;;22.98;8.48;;;;;;;26.50;42.90;95769.94;5002577;28;20058;-65
2021/08/06 03:37:30;;;;;;;18.90;9.10;;;;;;;26.53;43.27;95797.31;5003918;28;20064;-62
2021/08/06 03:39:57;;;;;;;16.10;8.50;;;;;;;26.61;42.97;95795.56;5004284;28;20577;-63
2021/08/06 03:42:23;;;;;;;24.35;8.13;;;;;;;26.58;43.11;95771.81;5004036;28;20064;-62
2021/08/06 03:44:50;;;;;;;18.88;7.97;;;;;;;26.83;42.83;95792.13;5002604;28;20052;-63
2021/08/06 03:47:18;;;;;;;21.92;8.43;;;;;;;26.82;43.07;95791.38;5003566;28;20521;-63
2021/08/06 03:49:45;;;;;;;21.08;8.80;;;;;;;26.74;43.19;95807.31;5004358;28;20069;-63
2021/08/06 03:52:11;;;;;;;23.00;9.77;;;;;;;26.60;46.38;95805.41;5002257;28;20060;-63
2021/08/06 03:54:38;;;;;;;22.73;10.52;;;;;;;26.14;48.72;95779.22;5002540;28;20062;-63
2021/08/06 03:57:06;;;;;;;26.38;9.85;;;;;;;26.23;49.82;95807.41;5002059;28;20054;-62
2021/08/06 03:59:32;;;;;;;24.08;9.90;;;;;;;25.93;50.67;95806.06;5002249;28;20065;-64
2021/08/06 04:01:59;;;;;;;32.63;11.52;;;;;;;25.81;51.02;95810.09;5003164;28;20054;-63
2021/08/06 04:04:26;;;;;;;28.67;11.77;;;;;;;25.71;51.53;95800.97;5002558;28;20153;-63
2021/08/06 04:06:53;;;;;;;34.25;12.75;;;;;;;25.58;52.10;95788.41;5002296;28;20053;-63
2021/08/06 04:09:19;;;;;;;30.33;12.90;;;;;;;25.69;51.75;95785.72;5002296;28;20058;-63
2021/08/06 04:11:46;;;;;;;23.80;10.32;;;;;;;25.96;50.71;95791.66;5001848;28;20108;-63
2021/08/06 04:14:13;;;;;;;28.70;9.88;;;;;;;26.18;49.95;95771.22;5003432;28;20064;-63
2021/08/06 04:16:40;;;;;;;24.33;9.98;;;;;;;26.47;49.10;95785.16;5002309;28;20054;-64
2021/08/06 04:19:07;;;;;;;24.17;10.60;;;;;;;26.28;48.54;95707.31;5002013;28;20053;-64
2021/08/06 04:21:34;;;;;;;24.27;11.00;;;;;;;26.66;48.26;95749.41;5003143;28;20499;-65
2021/08/06 04:24:00;;;;;;;22.88;10.27;;;;;;;27.11;48.02;95793.06;5003573;28;20488;-64
2021/08/06 04:26:27;;;;;;;30.17;9.98;;;;;;;27.10;47.43;95766.69;5003575;28;20064;-64
2021/08/06 04:28:57;;;;;;;26.23;10.55;;;;;;;27.24;46.71;95770.63;5004449;28;20085;-64
2021/08/06 04:31:24;;;;;;;27.48;10.45;;;;;;;26.70;47.06;95699.56;5005421;28;20050;-64
2021/08/06 04:33:51;;;;;;;17.42;9.40;;;;;;;27.40;45.54;95796.31;5005488;28;20512;-64
2021/08/06 04:36:17;;;;;;;20.92;9.40;;;;;;;27.33;46.21;95805.34;5006529;28;20056;-63
2021/08/06 04:38:44;;;;;;;22.55;10.05;;;;;;;27.56;45.48;95809.84;5006984;28;20054;-63
2021/08/06 04:41:11;;;;;;;31.13;10.73;;;;;;;27.45;45.70;95772.03;5005269;28;20057;-64
2021/08/06 04:43:38;;;;;;;24.17;9.18;;;;;;;27.75;45.66;95816.63;5005478;28;20065;-64
2021/08/06 04:46:05;;;;;;;34.58;11.20;;;;;;;27.81;46.44;95819.47;5005580;28;20129;-64
2021/08/06 04:48:31;;;;;;;37.35;11.32;;;;;;;27.89;45.78;95829.88;5005602;28;20180;-63
2021/08/06 04:50:58;;;;;;;26.55;11.45;;;;;;;27.75;47.01;95830.84;5005440;28;20053;-63
2021/08/06 04:53:25;;;;;;;24.15;10.90;;;;;;;27.13;49.22;95831.06;5005353;28;20053;-63
2021/08/06 04:55:52;;;;;;;22.80;10.55;;;;;;;27.15;50.22;95837.03;5005269;28;20504;-62
2021/08/06 04:58:19;;;;;;;22.73;10.88;;;;;;;26.94;51.13;95841.28;5005742;28;20532;-63
2021/08/06 05:00:45;;;;;;;27.88;11.70;;;;;;;26.69;51.34;95827.94;5006672;28;20500;-62
2021/08/06 05:03:12;;;;;;;24.38;11.05;;;;;;;25.90;52.63;95756.78;5005115;28;20064;-64
2021/08/06 05:05:39;;;;;;;27.83;10.45;;;;;;;26.64;51.74;95831.53;5005259;28;20145;-63
2021/08/06 05:08:05;;;;;;;21.98;10.80;;;;;;;26.45;49.33;95759.31;5006777;28;20062;-63
2021/08/06 05:10:32;;;;;;;21.08;10.05;;;;;;;26.69;51.21;95837.25;5006863;28;20116;-64
2021/08/06 05:12:59;;;;;;;24.52;10.90;;;;;;;26.99;48.91;95806.44;5006702;28;20054;-61
2021/08/06 05:15:26;;;;;;;27.50;10.63;;;;;;;27.09;47.75;95762.31;5004980;28;20053;-63
2021/08/06 05:17:52;;;;;;;22.45;9.98;;;;;;;27.77;46.95;95811.16;5004695;28;20054;-63
2021/08/06 05:20:19;;;;;;;20.17;10.32;;;;;;;28.01;45.59;95828.59;5006065;28;20062;-62
2021/08/06 05:22:46;;;;;;;17.80;10.35;;;;;;;28.31;44.67;95828.13;5006508;28;20061;-64
2021/08/06 05:25:13;;;;;;;20.38;10.05;;;;;;;28.39;43.78;95840.56;5006760;28;20704;-62
2021/08/06 05:27:40;;;;;;;22.38;8.85;;;;;;;28.73;43.16;95842.94;4996536;28;20072;-63
2021/08/06 05:30:07;;;;;;;19.83;10.18;;;;;;;29.24;42.58;95836.63;4994508;28;20050;-67
2021/08/06 05:32:34;;;;;;;20.58;10.52;;;;;;;29.05;41.42;95755.00;4999730;28;20054;-67
2021/08/06 05:35:00;;;;;;;17.90;9.95;;;;;;;29.43;41.06;95822.59;5002556;28;20144;-68
2021/08/06 05:37:27;;;;;;;22.20;10.02;;;;;;;29.36;40.73;95837.38;5005807;28;20072;-72
2021/08/06 05:39:54;;;;;;;19.15;10.23;;;;;;;29.25;40.09;95828.84;4997391;28;20557;-68
2021/08/06 05:42:20;;;;;;;49.00;21.77;;;;;;;28.66;40.68;95811.34;4985941;28;20105;-65
2021/08/06 05:44:47;;;;;;;24.90;9.20;;;;;;;28.40;40.69;95773.75;4986592;28;20050;-67
2021/08/06 05:47:14;;;;;;;25.63;12.45;;;;;;;29.10;40.37;95825.53;4986667;28;20046;-68
2021/08/06 05:49:40;;;;;;;18.10;8.50;;;;;;;28.93;40.42;95819.03;4992488;28;20505;-60
2021/08/06 05:52:07;;;;;;;24.02;11.38;;;;;;;28.60;40.89;95776.34;4989516;28;20065;-64
2021/08/06 05:54:34;;;;;;;17.90;9.85;;;;;;;28.26;41.41;95763.38;4987881;28;20528;-62
2021/08/06 05:57:01;;;;;;;32.17;15.70;;;;;;;28.83;40.83;95832.81;4984639;28;20101;-63
2021/08/06 05:59:27;;;;;;;27.90;11.63;;;;;;;28.58;40.93;95788.25;4984003;28;20054;-64
2021/08/06 06:01:54;;;;;;;17.38;8.35;;;;;;;29.14;40.92;95837.44;4984641;28;20089;-62
2021/08/06 06:04:21;;;;;;;15.68;8.35;;;;;;;28.50;41.74;95834.91;4985976;28;20066;-62
2021/08/06 06:06:48;;;;;;;26.15;9.50;;;;;;;29.02;41.19;95830.19;4985841;28;20054;-65
2021/08/06 06:09:15;;;;;;;17.17;9.32;;;;;;;29.15;40.78;95834.06;4985012;28;20101;-61
2021/08/06 06:11:41;;;;;;;19.15;9.15;;;;;;;29.22;40.28;95838.47;4985645;28;20050;-63
2021/08/06 06:14:08;;;;;;;19.83;8.80;;;;;;;28.90;40.50;95785.88;4983874;28;20501;-65
2021/08/06 06:16:35;;;;;;;22.33;9.57;;;;;;;29.26;40.50;95833.28;4985623;28;20054;-62
2021/08/06 06:19:02;;;;;;;15.48;8.63;;;;;;;28.96;40.83;95803.78;4984029;28;20062;-62
2021/08/06 06:21:29;;;;;;;26.38;9.38;;;;;;;29.00;40.60;95787.16;4984059;28;20068;-62
2021/08/06 06:23:57;;;;;;;20.35;8.75;;;;;;;29.24;40.70;95830.94;4985084;28;20054;-61
2021/08/06 06:26:23;;;;;;;18.17;9.23;;;;;;;29.59;40.23;95838.88;4984589;28;20059;-62
2021/08/06 06:28:50;;;;;;;11.98;7.88;;;;;;;28.81;40.14;95769.06;4985196;28;20064;-64
2021/08/06 06:31:18;;;;;;;16.88;7.88;;;;;;;29.20;40.79;95836.13;4983317;28;20055;-62
2021/08/06 06:33:45;;;;;;;31.48;8.43;;;;;;;28.88;40.52;95814.91;4985253;28;20058;-62
2021/08/06 06:36:12;;;;;;;24.13;8.95;;;;;;;29.18;40.44;95820.84;4985342;28;20062;-62
2021/08/06 06:38:39;;;;;;;17.35;7.97;;;;;;;29.43;39.92;95831.16;4985146;28;20054;-62
2021/08/06 06:41:05;;;;;;;12.07;7.40;;;;;;;29.27;39.81;95814.84;4983570;28;20062;-62
2021/08/06 06:43:32;;;;;;;15.07;7.30;;;;;;;29.26;40.05;95851.16;4985279;28;20139;-62
2021/08/06 06:45:59;;;;;;;22.83;7.97;;;;;;;28.51;41.25;95842.16;4999461;28;20049;-62
2021/08/06 06:48:26;;;;;;;14.38;7.07;;;;;;;28.57;41.23;95823.75;5002904;28;20057;-63
2021/08/06 06:50:54;;;;;;;17.73;6.82;;;;;;;28.73;40.91;95859.25;5003840;28;20548;-61
2021/08/06 06:53:21;;;;;;;14.43;7.93;;;;;;;29.02;40.11;95835.91;5004346;28;20062;-62
2021/08/06 06:55:48;;;;;;;12.68;7.20;;;;;;;29.03;40.25;95838.22;5004179;28;20588;-63
2021/08/06 06:58:15;;;;;;;14.60;7.43;;;;;;;28.57;40.62;95829.47;5004648;28;20568;-62
2021/08/06 07:00:41;;;;;;;15.95;6.07;;;;;;;28.34;40.44;95764.44;5005046;28;20053;-62
2021/08/06 07:03:08;;;;;;;8.13;6.03;;;;;;;28.66;40.90;95854.09;5004418;28;20154;-63
2021/08/06 07:05:35;;;;;;;10.30;6.20;;;;;;;28.73;41.03;95853.56;5004136;28;20057;-63
2021/08/06 07:08:03;;;;;;;12.48;6.25;;;;;;;28.85;40.34;95847.31;5004475;28;20065;-63
2021/08/06 07:10:30;;;;;;;10.23;6.47;;;;;;;28.98;39.59;95781.19;5004465;28;20413;-62
2021/08/06 07:12:57;;;;;;;13.68;6.68;;;;;;;29.18;39.68;95843.69;5002878;28;20501;-61
2021/08/06 07:15:24;;;;;;;11.90;5.60;;;;;;;29.03;39.54;95848.84;5004805;28;20068;-62
2021/08/06 07:17:51;;;;;;;9.75;6.03;;;;;;;29.31;38.78;95863.84;5004441;28;20057;-61
2021/08/06 07:20:21;;;;;;;12.98;6.68;;;;;;;29.04;40.28;95858.94;5003344;28;20485;-62
2021/08/06 07:22:49;;;;;;;15.05;5.65;;;;;;;29.17;39.45;95853.50;5002473;28;20053;-63
2021/08/06 07:25:17;;;;;;;11.27;5.43;;;;;;;29.26;39.15;95850.41;5002507;28;20053;-62
2021/08/06 07:27:45;;;;;;;10.55;5.60;;;;;;;29.30;38.77;95823.16;4997419;28;20058;-60
2021/08/06 07:30:14;;;;;;;6.60;5.07;;;;;;;29.61;38.54;95859.09;5001127;28;20216;-62
2021/08/06 07:32:41;;;;;;;11.43;5.70;;;;;;;29.58;38.96;95865.84;5002557;28;20058;-65
2021/08/06 07:35:08;;;;;;;6.85;5.18;;;;;;;28.54;39.18;95758.47;5003669;28;20058;-61
2021/08/06 07:37:35;;;;;;;6.15;5.03;;;;;;;29.07;39.25;95815.19;5003777;28;20054;-62
2021/08/06 07:40:04;;;;;;;10.10;5.65;;;;;;;28.55;40.25;95817.03;5004304;28;20575;-62
2021/08/06 07:42:30;;;;;;;7.32;5.43;;;;;;;29.07;39.78;95866.53;5002600;28;20500;-61
2021/08/06 07:44:57;;;;;;;10.20;5.50;;;;;;;28.79;40.07;95862.88;5002373;28;20052;-63
2021/08/06 07:47:24;;;;;;;11.23;5.63;;;;;;;28.66;40.47;95871.19;5003995;28;20065;-60
2021/08/06 07:49:51;;;;;;;6.68;5.05;;;;;;;28.56;41.09;95867.03;5003246;28;20525;-63
2021/08/06 07:52:18;;;;;;;9.68;5.45;;;;;;;28.44;41.44;95871.16;5003679;28;20057;-62
2021/08/06 07:54:45;;;;;;;9.07;5.18;;;;;;;28.46;41.29;95857.13;5002191;28;20058;-62
2021/08/06 07:57:12;;;;;;;8.90;5.03;;;;;;;28.85;40.67;95872.22;5003900;28;20053;-63
2021/08/06 07:59:39;;;;;;;24.50;7.50;;;;;;;28.85;41.18;95872.97;5004003;28;20239;-63
2021/08/06 08:02:07;;;;;;;8.90;4.78;;;;;;;28.84;40.65;95876.34;5002582;28;20251;-62
2021/08/06 08:04:35;;;;;;;7.65;4.85;;;;;;;28.42;41.21;95839.53;5005910;28;20058;-62
2021/08/06 08:07:03;;;;;;;6.35;5.40;;;;;;;28.20;41.14;95845.97;5007867;28;20058;-62
2021/08/06 08:09:29;;;;;;;12.55;5.05;;;;;;;28.87;40.13;95881.00;5006257;28;20050;-62
2021/08/06 08:11:56;;;;;;;10.38;5.55;;;;;;;28.24;40.67;95837.97;5007019;28;20061;-61
2021/08/06 08:14:23;;;;;;;11.75;5.38;;;;;;;28.80;40.31;95870.91;5006327;28;20090;-64
2021/08/06 08:16:50;;;;;;;7.45;4.95;;;;;;;28.33;40.63;95888.22;5006268;28;20058;-64
2021/08/06 08:19:18;;;;;;;9.13;4.53;;;;;;;28.90;39.56;95879.97;5006526;28;20062;-63
2021/08/06 08:21:46;;;;;;;11.10;4.22;;;;;;;28.69;39.17;95836.69;5007702;28;20089;-62
2021/08/06 08:24:12;;;;;;;16.02;4.78;;;;;;;28.77;39.01;95832.03;5005734;28;20050;-63
2021/08/06 08:26:39;;;;;;;8.73;4.57;;;;;;;28.86;39.13;95903.06;5005603;28;20507;-63
2021/08/06 08:29:06;;;;;;;10.98;4.57;;;;;;;28.77;38.91;95896.84;5007187;28;20052;-63
2021/08/06 08:31:33;;;;;;;10.25;5.05;;;;;;;28.04;40.27;95887.38;5007286;28;20050;-63
2021/08/06 08:34:00;;;;;;;6.43;4.25;;;;;;;28.50;39.76;95917.56;5005505;28;20157;-63
2021/08/06 08:36:27;;;;;;;8.98;4.75;;;;;;;28.13;40.73;95921.34;5005868;28;20507;-61
2021/08/06 08:39:04;;;;;;;8.95;4.28;;;;;;;28.62;39.46;95908.50;5005549;28;20409;-62
2021/08/06 08:41:31;;;;;;;5.03;4.40;;;;;;;28.64;39.72;95913.69;5006879;28;20056;-62
2021/08/06 08:43:58;;;;;;;5.88;4.30;;;;;;;28.60;39.65;95913.13;5006662;28;20077;-62
2021/08/06 08:46:27;;;;;;;6.70;4.20;;;;;;;28.57;39.36;95897.06;5004850;28;20058;-61
2021/08/06 08:48:57;;;;;;;9.02;4.80;;;;;;;28.55;39.87;95899.69;5005461;28;20050;-60
2021/08/06 08:51:26;;;;;;;10.80;5.28;;;;;;;28.91;39.79;95881.53;5006639;28;20054;-64
2021/08/06 08:53:55;;;;;;;9.13;4.93;;;;;;;27.51;39.18;95625.66;5005447;28;20440;-62
2021/08/06 08:56:23;;;;;;;11.57;5.30;;;;;;;28.84;40.19;95864.94;5005467;28;20062;-62
2021/08/06 08:58:51;;;;;;;9.20;5.47;;;;;;;29.13;39.32;95881.53;5006774;28;20647;-61
2021/08/06 09:01:18;;;;;;;14.25;6.72;;;;;;;28.42;39.64;95828.13;5004944;28;20049;-61
2021/08/06 09:03:48;;;;;;;13.20;6.43;;;;;;;28.40;39.86;95782.28;5005041;28;20057;-61
2021/08/06 09:06:16;;;;;;;9.98;8.10;;;;;;;28.73;40.39;95880.00;5005821;28;20062;-64
2021/08/06 09:08:44;;;;;;;15.93;8.88;;;;;;;28.45;40.91;95827.88;5006380;28;20076;-61
2021/08/06 09:11:34;;;;;;;8.00;7.05;;;;;;;28.90;40.87;95874.28;5004938;28;20079;-61
2021/08/06 09:14:27;;;;;;;9.52;8.20;;;;;;;27.79;40.33;95643.50;5004980;28;20050;-61
2021/08/06 09:17:04;;;;;;;10.85;7.90;;;;;;;29.74;39.02;95827.91;5004727;28;20440;-64
2021/08/06 09:19:36;;;;;;;12.88;9.43;;;;;;;30.26;38.13;95862.97;4966182;28;20055;-61
2021/08/06 09:22:13;;;;;;;10.10;7.55;;;;;;;29.87;38.97;95848.09;4966175;28;20595;-61
2021/08/06 09:25:06;;;;;;;9.25;7.93;;;;;;;29.83;38.78;95853.31;4966979;28;20091;-62
2021/08/06 09:27:39;;;;;;;8.27;7.00;;;;;;;30.05;38.25;95856.03;4966061;28;20548;-62
2021/08/06 09:30:12;;;;;;;11.95;7.63;;;;;;;29.88;38.03;95832.50;4967155;28;20094;-62
2021/08/06 09:33:09;;;;;;;12.02;8.25;;;;;;;30.06;38.25;95849.03;4966159;28;20085;-62
2021/08/06 09:35:37;;;;;;;15.95;7.18;;;;;;;29.80;37.70;95845.78;4965686;28;20470;-62
2021/08/06 09:38:04;;;;;;;9.68;6.30;;;;;;;29.28;38.18;95782.16;4965771;28;20055;-64
2021/08/06 09:40:36;;;;;;;9.20;7.07;;;;;;;30.11;37.27;95839.66;4966794;28;20054;-62
2021/08/06 09:43:05;;;;;;;13.93;8.60;;;;;;;30.27;37.70;95830.22;4967142;28;20092;-63
2021/08/06 09:45:38;;;;;;;7.30;6.53;;;;;;;29.83;37.15;95767.63;4965116;28;20059;-62
2021/08/06 09:48:05;;;;;;;12.85;7.75;;;;;;;30.09;37.06;95841.47;4966798;28;20051;-62
2021/08/06 09:50:33;;;;;;;8.52;7.65;;;;;;;30.63;37.00;95834.63;4965702;28;20122;-63
2021/08/06 09:53:01;;;;;;;11.65;7.35;;;;;;;30.82;35.56;95729.72;4965668;28;20109;-62
2021/08/06 09:55:38;;;;;;;11.77;8.93;;;;;;;31.15;34.76;95770.69;4966785;28;20146;-62
2021/08/06 09:58:09;;;;;;;11.50;8.40;;;;;;;31.27;35.54;95815.81;4966618;28;20074;-62
2021/08/06 10:00:41;;;;;;;12.82;8.85;;;;;;;31.10;35.34;95831.63;4966993;28;21475;-61
2021/08/06 10:03:24;;;;;;;15.75;7.57;;;;;;;30.08;36.83;95817.84;4966361;28;20142;-62
2021/08/06 10:06:15;;;;;;;12.90;5.50;;;;;;;30.05;36.92;95813.19;4965855;28;20058;-64
2021/08/06 10:08:43;;;;;;;12.20;6.47;;;;;;;30.10;37.06;95812.38;4965999;28;20433;-61
2021/08/06 10:11:10;;;;;;;6.72;5.78;;;;;;;30.41;36.32;95819.75;4966680;28;20061;-64
2021/08/06 10:13:39;;;;;;;8.82;5.70;;;;;;;30.28;36.56;95808.91;4964814;28;20058;-62
2021/08/06 10:16:06;;;;;;;15.65;7.90;;;;;;;30.70;36.34;95805.44;4964732;28;20051;-63
2021/08/06 10:18:33;;;;;;;5.82;5.35;;;;;;;30.37;36.64;95742.06;4989782;28;20057;-61
2021/08/06 10:21:00;;;;;;;9.50;6.53;;;;;;;30.04;37.97;95811.66;5003699;28;20058;-62
2021/08/06 10:23:27;;;;;;;7.60;6.00;;;;;;;30.47;37.13;95792.66;5003542;28;20057;-62
2021/08/06 10:25:55;;;;;;;8.75;6.75;;;;;;;30.32;37.17;95795.13;5004428;28;20145;-64
2021/08/06 10:28:22;;;;;;;10.48;7.57;;;;;;;30.64;36.84;95790.44;5004229;28;20432;-62
2021/08/06 10:30:49;;;;;;;8.48;5.40;;;;;;;30.65;36.40;95746.22;5005237;28;20057;-61
2021/08/06 10:33:27;;;;;;;7.38;6.32;;;;;;;30.44;37.09;95792.94;5004671;28;20568;-63
2021/08/06 10:35:56;;;;;;;12.48;6.22;;;;;;;30.11;37.58;95782.53;5004880;28;20081;-62
2021/08/06 10:38:45;;;;;;;8.73;6.28;;;;;;;30.06;37.91;95783.34;5004881;28;20439;-62
2021/08/06 10:41:16;;;;;;;12.02;7.22;;;;;;;30.23;37.65;95781.16;5003511;28;20056;-61
2021/08/06 10:43:45;;;;;;;10.55;6.60;;;;;;;30.57;37.41;95784.53;5004774;28;20058;-63
2021/08/06 10:46:13;;;;;;;6.93;5.32;;;;;;;29.77;38.67;95781.19;5003039;28;20878;-62
2021/08/06 10:48:46;;;;;;;8.60;6.70;;;;;;;29.98;38.54;95779.50;5003758;28;20133;-65
2021/08/06 10:51:16;;;;;;;10.33;6.67;;;;;;;29.86;38.66;95789.41;5003478;28;20187;-64
2021/08/06 10:54:08;;;;;;;10.85;6.32;;;;;;;30.35;38.16;95785.47;5002974;28;20148;-65
2021/08/06 10:56:37;;;;;;;9.38;5.95;;;;;;;29.98;37.76;95768.06;5003030;28;20049;-61
2021/08/06 10:59:13;;;;;;;8.95;4.90;;;;;;;29.64;38.81;95789.53;5003181;28;20057;-61
2021/08/06 11:01:45;;;;;;;9.13;6.25;;;;;;;29.76;38.97;95785.34;5003013;28;20056;-62
2021/08/06 11:04:18;;;;;;;6.50;4.57;;;;;;;29.47;39.50;95797.38;5003350;28;20575;-63
2021/08/06 11:06:48;;;;;;;10.85;4.68;;;;;;;28.64;40.20;95806.16;5004717;28;20061;-62
2021/08/06 11:09:24;;;;;;;14.15;6.03;;;;;;;28.89;39.91;95810.00;5004119;28;20057;-62
2021/08/06 11:11:54;;;;;;;9.02;6.25;;;;;;;28.86;39.89;95802.47;5004254;28;20472;-63
2021/08/06 11:14:32;;;;;;;8.30;7.38;;;;;;;28.51;39.47;95799.41;5004605;28;20057;-62
2021/08/06 11:17:02;;;;;;;6.45;4.55;;;;;;;28.13;39.78;95813.09;5003777;28;20133;-62
2021/08/06 11:19:35;;;;;;;8.18;5.20;;;;;;;28.18;40.43;95798.06;5002559;28;20093;-63
2021/08/06 11:22:07;;;;;;;;;;;;;;;28.48;39.35;95803.31;5003669;28;20078;-62
2021/08/06 11:24:39;;;;;;;6.97;5.03;;;;;;;29.08;37.88;95759.69;5004323;28;20355;-62
2021/08/06 11:27:07;;;;;;;4.70;4.30;;;;;;;29.14;37.67;95754.72;5003035;28;20064;-62
2021/08/06 11:29:34;;;;;;;7.28;5.22;;;;;;;28.96;37.40;95775.25;5003723;28;20065;-62
2021/08/06 11:32:06;;;;;;;10.10;5.35;;;;;;;29.09;37.15;95801.16;5002094;28;20064;-63